sensor_id;sensor_type;location;lat;lon;timestamp;pressure;altitude;pressure_sealevel;temperature;humidity
7662;BME280;30314;48.184;11.510;2024-03-02T00:00:51;94895.75;;;5.61;100.00
7662;BME280;30314;48.184;11.510;2024-03-02T00:03:19;94880.50;;;5.39;100.00
7662;BME280;30314;48.184;11.510;2024-03-02T00:05:50;94871.34;;;5.36;100.00
7662;BME280;30314;48.184;11.510;2024-03-02T00:08:25;94866.13;;;5.36;100.00
7662;BME280;30314;48.184;11.510;2024-03-02T00:10:57;94889.50;;;5.57;100.00
7662;BME280;30314;48.184;11.510;2024-03-02T00:13:24;94862.72;;;5.35;100.00
7662;BME280;30314;48.184;11.510;2024-03-02T00:15:52;94862.16;;;5.39;100.00
7662;BME280;30314;48.184;11.510;2024-03-02T00:18:25;94854.13;;;5.30;100.00
7662;BME280;30314;48.184;11.510;2024-03-02T00:20:55;94867.41;;;5.39;100.00
7662;BME280;30314;48.184;11.510;2024-03-02T00:23:24;94875.69;;;5.51;100.00
7662;BME280;30314;48.184;11.510;2024-03-02T00:25:54;94874.13;;;5.50;100.00
7662;BME280;30314;48.184;11.510;2024-03-02T00:28:35;94836.88;;;5.29;100.00
7662;BME280;30314;48.184;11.510;2024-03-02T00:31:03;94871.00;;;5.48;100.00
7662;BME280;30314;48.184;11.510;2024-03-02T00:33:39;94868.38;;;5.48;100.00
7662;BME280;30314;48.184;11.510;2024-03-02T00:36:07;94836.13;;;5.23;100.00
7662;BME280;30314;48.184;11.510;2024-03-02T00:38:44;94832.72;;;5.22;100.00
7662;BME280;30314;48.184;11.510;2024-03-02T00:41:16;94849.09;;;5.39;100.00
7662;BME280;30314;48.184;11.510;2024-03-02T00:46:19;94789.78;;;4.94;100.00
7662;BME280;30314;48.184;11.510;2024-03-02T00:49:00;94817.25;;;5.26;100.00
7662;BME280;30314;48.184;11.510;2024-03-02T00:51:30;94851.59;;;5.49;100.00
7662;BME280;30314;48.184;11.510;2024-03-02T00:54:05;94805.25;;;5.20;100.00
7662;BME280;30314;48.184;11.510;2024-03-02T00:56:32;94833.22;;;5.25;100.00
7662;BME280;30314;48.184;11.510;2024-03-02T00:58:59;94868.91;;;5.45;100.00
7662;BME280;30314;48.184;11.510;2024-03-02T01:01:25;94861.56;;;5.47;100.00
7662;BME280;30314;48.184;11.510;2024-03-02T01:03:52;94867.84;;;5.46;100.00
7662;BME280;30314;48.184;11.510;2024-03-02T01:06:19;94784.28;;;4.96;100.00
7662;BME280;30314;48.184;11.510;2024-03-02T01:08:46;94861.13;;;5.40;100.00
7662;BME280;30314;48.184;11.510;2024-03-02T01:11:17;94864.69;;;5.49;100.00
7662;BME280;30314;48.184;11.510;2024-03-02T01:13:45;94857.50;;;5.35;100.00
7662;BME280;30314;48.184;11.510;2024-03-02T01:16:13;94869.41;;;5.47;100.00
7662;BME280;30314;48.184;11.510;2024-03-02T01:18:39;94814.63;;;4.97;100.00
7662;BME280;30314;48.184;11.510;2024-03-02T01:21:06;94804.22;;;4.91;100.00
7662;BME280;30314;48.184;11.510;2024-03-02T01:23:33;94843.47;;;5.21;100.00
7662;BME280;30314;48.184;11.510;2024-03-02T01:25:59;94839.06;;;5.16;100.00
7662;BME280;30314;48.184;11.510;2024-03-02T01:28:26;94828.88;;;5.15;100.00
7662;BME280;30314;48.184;11.510;2024-03-02T01:30:53;94843.69;;;5.25;100.00
7662;BME280;30314;48.184;11.510;2024-03-02T01:33:19;94862.50;;;5.32;100.00
7662;BME280;30314;48.184;11.510;2024-03-02T01:35:51;94839.56;;;5.18;100.00
7662;BME280;30314;48.184;11.510;2024-03-02T01:38:18;94838.03;;;5.17;100.00
7662;BME280;30314;48.184;11.510;2024-03-02T01:40:44;94864.22;;;5.42;100.00
7662;BME280;30314;48.184;11.510;2024-03-02T01:43:11;94823.13;;;5.13;100.00
7662;BME280;30314;48.184;11.510;2024-03-02T01:45:38;94797.13;;;4.92;100.00
7662;BME280;30314;48.184;11.510;2024-03-02T01:48:06;94867.41;;;5.39;100.00
7662;BME280;30314;48.184;11.510;2024-03-02T01:50:34;94849.72;;;5.25;100.00
7662;BME280;30314;48.184;11.510;2024-03-02T01:53:01;94773.16;;;4.79;100.00
7662;BME280;30314;48.184;11.510;2024-03-02T01:55:29;94843.47;;;5.21;100.00
7662;BME280;30314;48.184;11.510;2024-03-02T01:57:57;94855.94;;;5.34;100.00
7662;BME280;30314;48.184;11.510;2024-03-02T02:00:25;94847.66;;;5.22;100.00
7662;BME280;30314;48.184;11.510;2024-03-02T02:02:54;94832.81;;;5.12;100.00
7662;BME280;30314;48.184;11.510;2024-03-02T02:05:21;94821.09;;;5.04;100.00
7662;BME280;30314;48.184;11.510;2024-03-02T02:07:48;94786.22;;;4.85;100.00
7662;BME280;30314;48.184;11.510;2024-03-02T02:10:15;94811.19;;;5.01;100.00
7662;BME280;30314;48.184;11.510;2024-03-02T02:12:42;94831.72;;;5.18;100.00
7662;BME280;30314;48.184;11.510;2024-03-02T02:15:29;94832.72;;;5.22;100.00
7662;BME280;30314;48.184;11.510;2024-03-02T02:17:58;94776.34;;;4.76;100.00
7662;BME280;30314;48.184;11.510;2024-03-02T02:20:26;94829.47;;;5.06;100.00
7662;BME280;30314;48.184;11.510;2024-03-02T02:22:57;94808.31;;;5.03;100.00
7662;BME280;30314;48.184;11.510;2024-03-02T02:25:24;94767.53;;;4.67;100.00
7662;BME280;30314;48.184;11.510;2024-03-02T02:27:52;94809.13;;;4.98;100.00
7662;BME280;30314;48.184;11.510;2024-03-02T02:30:27;94817.22;;;5.02;100.00
7662;BME280;30314;48.184;11.510;2024-03-02T02:32:54;94802.38;;;4.92;100.00
7662;BME280;30314;48.184;11.510;2024-03-02T02:35:21;94817.81;;;4.93;100.00
7662;BME280;30314;48.184;11.510;2024-03-02T02:37:49;94811.78;;;4.93;100.00
7662;BME280;30314;48.184;11.510;2024-03-02T02:40:16;94823.22;;;5.02;100.00
7662;BME280;30314;48.184;11.510;2024-03-02T02:42:42;94818.03;;;4.97;100.00
7662;BME280;30314;48.184;11.510;2024-03-02T02:45:09;94793.34;;;4.79;100.00
7662;BME280;30314;48.184;11.510;2024-03-02T02:47:37;94820.09;;;5.00;100.00
7662;BME280;30314;48.184;11.510;2024-03-02T02:50:06;94802.94;;;4.89;100.00
7662;BME280;30314;48.184;11.510;2024-03-02T02:52:34;94820.16;;;4.95;100.00
7662;BME280;30314;48.184;11.510;2024-03-02T02:55:03;94834.75;;;5.01;100.00
7662;BME280;30314;48.184;11.510;2024-03-02T02:57:31;94836.31;;;5.02;100.00
7662;BME280;30314;48.184;11.510;2024-03-02T03:00:12;94836.56;;;5.01;100.00
7662;BME280;30314;48.184;11.510;2024-03-02T03:02:43;94843.41;;;5.02;100.00
7662;BME280;30314;48.184;11.510;2024-03-02T03:05:12;94840.47;;;5.03;100.00
7662;BME280;30314;48.184;11.510;2024-03-02T03:07:40;94845.44;;;5.05;100.00
7662;BME280;30314;48.184;11.510;2024-03-02T03:10:07;94845.44;;;5.05;100.00
7662;BME280;30314;48.184;11.510;2024-03-02T03:12:34;94836.03;;;5.04;100.00
7662;BME280;30314;48.184;11.510;2024-03-02T03:15:02;94835.00;;;5.00;100.00
7662;BME280;30314;48.184;11.510;2024-03-02T03:17:30;94838.41;;;5.00;100.00
7662;BME280;30314;48.184;11.510;2024-03-02T03:19:57;94828.72;;;5.01;100.00
7662;BME280;30314;48.184;11.510;2024-03-02T03:22:23;94833.69;;;5.02;100.00
7662;BME280;30314;48.184;11.510;2024-03-02T03:24:50;94828.47;;;5.02;100.00
7662;BME280;30314;48.184;11.510;2024-03-02T03:27:17;94827.38;;;5.09;100.00
7662;BME280;30314;48.184;11.510;2024-03-02T03:29:43;94825.28;;;5.05;100.00
7662;BME280;30314;48.184;11.510;2024-03-02T03:32:10;94815.88;;;5.04;100.00
7662;BME280;30314;48.184;11.510;2024-03-02T03:34:36;94829.69;;;5.10;100.00
7662;BME280;30314;48.184;11.510;2024-03-02T03:37:03;94827.88;;;5.11;100.00
7662;BME280;30314;48.184;11.510;2024-03-02T03:39:30;94819.53;;;5.09;100.00
7662;BME280;30314;48.184;11.510;2024-03-02T03:41:56;94828.31;;;5.18;100.00
7662;BME280;30314;48.184;11.510;2024-03-02T03:44:23;94821.50;;;5.22;100.00
7662;BME280;30314;48.184;11.510;2024-03-02T03:46:49;94819.13;;;5.20;100.00
7662;BME280;30314;48.184;11.510;2024-03-02T03:49:16;94822.03;;;5.19;100.00
7662;BME280;30314;48.184;11.510;2024-03-02T03:51:43;94833.22;;;5.25;100.00
7662;BME280;30314;48.184;11.510;2024-03-02T03:54:10;94834.53;;;5.27;100.00
7662;BME280;30314;48.184;11.510;2024-03-02T03:56:38;94843.38;;;5.31;100.00
7662;BME280;30314;48.184;11.510;2024-03-02T03:59:04;94841.06;;;5.30;100.00
7662;BME280;30314;48.184;11.510;2024-03-02T04:01:31;94841.06;;;5.30;100.00
7662;BME280;30314;48.184;11.510;2024-03-02T04:03:58;94843.44;;;5.26;100.00
7662;BME280;30314;48.184;11.510;2024-03-02T04:06:25;94842.94;;;5.24;100.00
7662;BME280;30314;48.184;11.510;2024-03-02T04:08:52;94851.31;;;5.21;100.00
7662;BME280;30314;48.184;11.510;2024-03-02T04:11:18;94840.34;;;5.19;100.00
7662;BME280;30314;48.184;11.510;2024-03-02T04:13:45;94842.97;;;5.19;100.00
7662;BME280;30314;48.184;11.510;2024-03-02T04:16:11;94844.56;;;5.15;100.00
7662;BME280;30314;48.184;11.510;2024-03-02T04:18:38;94852.94;;;5.17;100.00
7662;BME280;30314;48.184;11.510;2024-03-02T04:21:06;94851.44;;;5.11;100.00
7662;BME280;30314;48.184;11.510;2024-03-02T04:23:33;94858.22;;;5.12;100.00
7662;BME280;30314;48.184;11.510;2024-03-02T04:25:59;94856.09;;;5.14;100.00
7662;BME280;30314;48.184;11.510;2024-03-02T04:28:26;94858.72;;;5.14;100.00
7662;BME280;30314;48.184;11.510;2024-03-02T04:30:52;94863.22;;;5.08;100.00
7662;BME280;30314;48.184;11.510;2024-03-02T04:33:19;94853.84;;;5.02;100.00
7662;BME280;30314;48.184;11.510;2024-03-02T04:35:46;94866.91;;;5.07;100.00
7662;BME280;30314;48.184;11.510;2024-03-02T04:38:12;94868.44;;;5.08;100.00
7662;BME280;30314;48.184;11.510;2024-03-02T04:40:39;94876.81;;;5.10;100.00
7662;BME280;30314;48.184;11.510;2024-03-02T04:43:05;94880.25;;;5.05;100.00
7662;BME280;30314;48.184;11.510;2024-03-02T04:45:32;94864.63;;;4.95;100.00
7662;BME280;30314;48.184;11.510;2024-03-02T04:47:59;94874.56;;;4.98;100.00
7662;BME280;30314;48.184;11.510;2024-03-02T04:50:25;94868.53;;;4.98;100.00
7662;BME280;30314;48.184;11.510;2024-03-02T04:52:52;94878.97;;;5.03;100.00
7662;BME280;30314;48.184;11.510;2024-03-02T04:55:18;94870.88;;;4.99;100.00
7662;BME280;30314;48.184;11.510;2024-03-02T04:57:45;94874.31;;;4.95;100.00
7662;BME280;30314;48.184;11.510;2024-03-02T05:00:13;94872.50;;;4.95;100.00
7662;BME280;30314;48.184;11.510;2024-03-02T05:02:39;94878.72;;;4.99;100.00
7662;BME280;30314;48.184;11.510;2024-03-02T05:05:06;94878.72;;;4.99;100.00
7662;BME280;30314;48.184;11.510;2024-03-02T05:07:33;94886.03;;;5.02;100.00
7662;BME280;30314;48.184;11.510;2024-03-02T05:09:59;94891.53;;;5.01;100.00
7662;BME280;30314;48.184;11.510;2024-03-02T05:12:26;94890.25;;;4.98;100.00
7662;BME280;30314;48.184;11.510;2024-03-02T05:15:15;94904.91;;;4.99;100.00
7662;BME280;30314;48.184;11.510;2024-03-02T05:17:42;94900.72;;;4.98;100.00
7662;BME280;30314;48.184;11.510;2024-03-02T05:20:12;94892.63;;;4.95;100.00
7662;BME280;30314;48.184;11.510;2024-03-02T05:22:38;94893.94;;;4.97;100.00
7662;BME280;30314;48.184;11.510;2024-03-02T05:25:06;94894.19;;;4.96;100.00
7662;BME280;30314;48.184;11.510;2024-03-02T05:27:33;94895.25;;;4.95;100.00
7662;BME280;30314;48.184;11.510;2024-03-02T05:30:01;94901.78;;;4.97;100.00
7662;BME280;30314;48.184;11.510;2024-03-02T05:32:28;94895.78;;;4.91;100.00
7662;BME280;30314;48.184;11.510;2024-03-02T05:34:54;94886.09;;;4.92;100.00
7662;BME280;30314;48.184;11.510;2024-03-02T05:37:21;94885.88;;;4.88;100.00
7662;BME280;30314;48.184;11.510;2024-03-02T05:39:48;94893.94;;;4.92;100.00
7662;BME280;30314;48.184;11.510;2024-03-02T05:42:14;94896.56;;;4.92;100.00
7662;BME280;30314;48.184;11.510;2024-03-02T05:44:43;94905.44;;;4.96;100.00
7662;BME280;30314;48.184;11.510;2024-03-02T05:47:10;94904.41;;;4.97;100.00
7662;BME280;30314;48.184;11.510;2024-03-02T05:49:36;94907.53;;;4.94;100.00
7662;BME280;30314;48.184;11.510;2024-03-02T05:52:03;94895.00;;;4.91;100.00
7662;BME280;30314;48.184;11.510;2024-03-02T05:54:29;94900.47;;;4.95;100.00
7662;BME280;30314;48.184;11.510;2024-03-02T05:56:56;94889.25;;;4.89;100.00
7662;BME280;30314;48.184;11.510;2024-03-02T05:59:23;94896.56;;;4.92;100.00
7662;BME280;30314;48.184;11.510;2024-03-02T06:01:49;94893.72;;;4.88;100.00
7662;BME280;30314;48.184;11.510;2024-03-02T06:04:18;94888.75;;;4.87;100.00
7662;BME280;30314;48.184;11.510;2024-03-02T06:06:45;94899.97;;;4.92;100.00
7662;BME280;30314;48.184;11.510;2024-03-02T06:09:11;94876.25;;;4.78;100.00
7662;BME280;30314;48.184;11.510;2024-03-02T06:11:42;94896.56;;;4.92;100.00
7662;BME280;30314;48.184;11.510;2024-03-02T06:14:09;94894.44;;;4.94;100.00
7662;BME280;30314;48.184;11.510;2024-03-02T06:16:38;94894.75;;;4.92;100.00
7662;BME280;30314;48.184;11.510;2024-03-02T06:19:05;94906.50;;;4.95;100.00
7662;BME280;30314;48.184;11.510;2024-03-02T06:21:31;94904.91;;;4.94;100.00
7662;BME280;30314;48.184;11.510;2024-03-02T06:23:58;94899.19;;;4.92;100.00
7662;BME280;30314;48.184;11.510;2024-03-02T06:26:24;94906.25;;;4.91;100.00
7662;BME280;30314;48.184;11.510;2024-03-02T06:28:52;94902.31;;;4.94;100.00
7662;BME280;30314;48.184;11.510;2024-03-02T06:31:19;94892.69;;;4.89;100.00
7662;BME280;30314;48.184;11.510;2024-03-02T06:33:45;94912.19;;;5.02;100.00
7662;BME280;30314;48.184;11.510;2024-03-02T06:36:12;94906.97;;;5.02;100.00
7662;BME280;30314;48.184;11.510;2024-03-02T06:38:39;94905.13;;;5.03;100.00
7662;BME280;30314;48.184;11.510;2024-03-02T06:41:09;94908.53;;;5.03;100.00
7662;BME280;30314;48.184;11.510;2024-03-02T06:43:36;94902.28;;;4.99;100.00
7662;BME280;30314;48.184;11.510;2024-03-02T06:46:02;94894.69;;;4.98;100.00
7662;BME280;30314;48.184;11.510;2024-03-02T06:48:29;94895.72;;;5.02;100.00
7662;BME280;30314;48.184;11.510;2024-03-02T06:50:56;94902.28;;;4.99;100.00
7662;BME280;30314;48.184;11.510;2024-03-02T06:53:24;94902.84;;;4.96;100.00
7662;BME280;30314;48.184;11.510;2024-03-02T06:55:51;94896.81;;;4.96;100.00
7662;BME280;30314;48.184;11.510;2024-03-02T06:58:17;94893.44;;;4.90;100.00
7662;BME280;30314;48.184;11.510;2024-03-02T07:00:44;94903.88;;;4.95;100.00
7662;BME280;30314;48.184;11.510;2024-03-02T07:03:11;94909.13;;;4.95;100.00
7662;BME280;30314;48.184;11.510;2024-03-02T07:05:37;94899.69;;;4.94;100.00
7662;BME280;30314;48.184;11.510;2024-03-02T07:08:04;94916.97;;;4.95;100.00
7662;BME280;30314;48.184;11.510;2024-03-02T07:10:31;94911.75;;;4.95;100.00
7662;BME280;30314;48.184;11.510;2024-03-02T07:12:58;94902.31;;;4.94;100.00
7662;BME280;30314;48.184;11.510;2024-03-02T07:15:24;94902.84;;;4.96;100.00
7662;BME280;30314;48.184;11.510;2024-03-02T07:18:05;94907.03;;;4.92;100.00
7662;BME280;30314;48.184;11.510;2024-03-02T07:20:32;94904.91;;;4.94;100.00
7662;BME280;30314;48.184;11.510;2024-03-02T07:22:58;94890.59;;;4.86;100.00
7662;BME280;30314;48.184;11.510;2024-03-02T07:25:25;94898.13;;;4.93;100.00
7662;BME280;30314;48.184;11.510;2024-03-02T07:27:54;94879.38;;;4.81;100.00
7662;BME280;30314;48.184;11.510;2024-03-02T07:30:21;94870.75;;;4.80;100.00
7662;BME280;30314;48.184;11.510;2024-03-02T07:32:50;94903.59;;;5.02;100.00
7662;BME280;30314;48.184;11.510;2024-03-02T07:35:17;94913.22;;;5.06;100.00
7662;BME280;30314;48.184;11.510;2024-03-02T07:37:44;94907.44;;;5.10;100.00
7662;BME280;30314;48.184;11.510;2024-03-02T07:40:11;94901.91;;;5.16;100.00
7662;BME280;30314;48.184;11.510;2024-03-02T07:42:39;94917.25;;;5.28;100.00
7662;BME280;30314;48.184;11.510;2024-03-02T07:45:06;94921.09;;;5.36;100.00
7662;BME280;30314;48.184;11.510;2024-03-02T07:47:34;94917.19;;;5.33;100.00
7662;BME280;30314;48.184;11.510;2024-03-02T07:50:01;94922.34;;;5.44;100.00
7662;BME280;30314;48.184;11.510;2024-03-02T07:52:27;94916.84;;;5.45;100.00
7662;BME280;30314;48.184;11.510;2024-03-02T07:54:54;94923.50;;;5.62;100.00
7662;BME280;30314;48.184;11.510;2024-03-02T07:57:21;94925.72;;;5.74;100.00
7662;BME280;30314;48.184;11.510;2024-03-02T07:59:48;94922.25;;;5.84;100.00
7662;BME280;30314;48.184;11.510;2024-03-02T08:02:15;94922.63;;;6.20;100.00
7662;BME280;30314;48.184;11.510;2024-03-02T08:04:42;94924.91;;;7.75;100.00
7662;BME280;30314;48.184;11.510;2024-03-02T08:07:09;94928.75;;;9.90;100.00
7662;BME280;30314;48.184;11.510;2024-03-02T08:09:35;94929.56;;;10.49;100.00
7662;BME280;30314;48.184;11.510;2024-03-02T08:12:02;94925.56;;;10.60;100.00
7662;BME280;30314;48.184;11.510;2024-03-02T08:14:44;94923.44;;;10.22;100.00
7662;BME280;30314;48.184;11.510;2024-03-02T08:17:10;94927.78;;;9.54;100.00
7662;BME280;30314;48.184;11.510;2024-03-02T08:19:37;94930.97;;;8.83;100.00
7662;BME280;30314;48.184;11.510;2024-03-02T08:22:04;94932.94;;;8.77;100.00
7662;BME280;30314;48.184;11.510;2024-03-02T08:24:31;94939.25;;;9.50;100.00
7662;BME280;30314;48.184;11.510;2024-03-02T08:26:59;94932.03;;;9.64;100.00
7662;BME280;30314;48.184;11.510;2024-03-02T08:29:26;94943.66;;;9.63;100.00
7662;BME280;30314;48.184;11.510;2024-03-02T08:31:53;94938.47;;;9.26;100.00
7662;BME280;30314;48.184;11.510;2024-03-02T08:34:20;94937.34;;;9.05;100.00
7662;BME280;30314;48.184;11.510;2024-03-02T08:36:47;94941.41;;;8.88;100.00
7662;BME280;30314;48.184;11.510;2024-03-02T08:39:14;94940.94;;;8.72;100.00
7662;BME280;30314;48.184;11.510;2024-03-02T08:41:44;94937.94;;;8.65;100.00
7662;BME280;30314;48.184;11.510;2024-03-02T08:44:10;94942.31;;;8.69;100.00
7662;BME280;30314;48.184;11.510;2024-03-02T08:46:38;94941.75;;;8.58;100.00
7662;BME280;30314;48.184;11.510;2024-03-02T08:49:05;94938.63;;;8.56;100.00
7662;BME280;30314;48.184;11.510;2024-03-02T08:51:33;94933.09;;;8.44;100.00
7662;BME280;30314;48.184;11.510;2024-03-02T08:53:59;94934.94;;;8.43;100.00
7662;BME280;30314;48.184;11.510;2024-03-02T08:56:26;94933.78;;;8.36;100.00
7662;BME280;30314;48.184;11.510;2024-03-02T08:58:53;94937.09;;;8.41;100.00
7662;BME280;30314;48.184;11.510;2024-03-02T09:01:19;94926.66;;;8.36;100.00
7662;BME280;30314;48.184;11.510;2024-03-02T09:03:46;94928.22;;;8.37;100.00
7662;BME280;30314;48.184;11.510;2024-03-02T09:06:13;94925.50;;;8.28;100.00
7662;BME280;30314;48.184;11.510;2024-03-02T09:08:40;94929.28;;;8.36;100.00
7662;BME280;30314;48.184;11.510;2024-03-02T09:11:07;94930.66;;;8.62;100.00
7662;BME280;30314;48.184;11.510;2024-03-02T09:13:34;94932.53;;;8.47;100.00
7662;BME280;30314;48.184;11.510;2024-03-02T09:16:01;94941.06;;;8.67;100.00
7662;BME280;30314;48.184;11.510;2024-03-02T09:18:27;94927.41;;;8.65;100.00
7662;BME280;30314;48.184;11.510;2024-03-02T09:20:54;94923.69;;;8.80;100.00
7662;BME280;30314;48.184;11.510;2024-03-02T09:23:21;94923.44;;;8.90;100.00
7662;BME280;30314;48.184;11.510;2024-03-02T09:25:47;94924.03;;;8.87;100.00
7662;BME280;30314;48.184;11.510;2024-03-02T09:28:20;94942.84;;;8.94;100.00
7662;BME280;30314;48.184;11.510;2024-03-02T09:30:46;94919.19;;;8.80;100.00
7662;BME280;30314;48.184;11.510;2024-03-02T09:33:13;94934.84;;;8.85;100.00
7662;BME280;30314;48.184;11.510;2024-03-02T09:35:42;94916.63;;;8.89;100.00
7662;BME280;30314;48.184;11.510;2024-03-02T09:38:09;94933.16;;;9.03;100.00
7662;BME280;30314;48.184;11.510;2024-03-02T09:40:35;94924.16;;;9.05;100.00
7662;BME280;30314;48.184;11.510;2024-03-02T09:43:02;94921.13;;;9.25;100.00
7662;BME280;30314;48.184;11.510;2024-03-02T09:45:30;94937.44;;;9.13;100.00
7662;BME280;30314;48.184;11.510;2024-03-02T09:47:56;94923.88;;;9.06;100.00
7662;BME280;30314;48.184;11.510;2024-03-02T09:50:23;94918.56;;;8.97;100.00
7662;BME280;30314;48.184;11.510;2024-03-02T09:52:49;94926.13;;;8.99;100.00
7662;BME280;30314;48.184;11.510;2024-03-02T09:55:17;94926.22;;;9.08;100.00
7662;BME280;30314;48.184;11.510;2024-03-02T09:57:45;94919.63;;;8.96;100.00
7662;BME280;30314;48.184;11.510;2024-03-02T10:00:13;94922.34;;;9.05;100.00
7662;BME280;30314;48.184;11.510;2024-03-02T10:02:42;94922.69;;;9.12;100.00
7662;BME280;30314;48.184;11.510;2024-03-02T10:05:09;94923.75;;;9.11;100.00
7662;BME280;30314;48.184;11.510;2024-03-02T10:07:36;94921.72;;;9.08;100.00
7662;BME280;30314;48.184;11.510;2024-03-02T10:10:13;94920.84;;;9.13;100.00
7662;BME280;30314;48.184;11.510;2024-03-02T10:12:41;94928.44;;;9.14;100.00
7662;BME280;30314;48.184;11.510;2024-03-02T10:15:08;94917.41;;;9.12;100.00
7662;BME280;30314;48.184;11.510;2024-03-02T10:17:36;94918.38;;;9.16;100.00
7662;BME280;30314;48.184;11.510;2024-03-02T10:20:25;94913.88;;;9.17;100.00
7662;BME280;30314;48.184;11.510;2024-03-02T10:22:52;94920.63;;;9.23;100.00
7662;BME280;30314;48.184;11.510;2024-03-02T10:25:31;94924.50;;;9.26;100.00
7662;BME280;30314;48.184;11.510;2024-03-02T10:28:16;94915.53;;;9.50;100.00
7662;BME280;30314;48.184;11.510;2024-03-02T10:30:43;94915.94;;;9.66;100.00
7662;BME280;30314;48.184;11.510;2024-03-02T10:33:09;94904.91;;;9.64;100.00
7662;BME280;30314;48.184;11.510;2024-03-02T10:35:36;94910.34;;;9.67;100.00
7662;BME280;30314;48.184;11.510;2024-03-02T10:38:04;94894.84;;;9.66;100.00
7662;BME280;30314;48.184;11.510;2024-03-02T10:40:32;94903.63;;;9.93;100.00
7662;BME280;30314;48.184;11.510;2024-03-02T10:43:01;94908.28;;;9.96;100.00
7662;BME280;30314;48.184;11.510;2024-03-02T10:45:31;94894.06;;;10.06;100.00
7662;BME280;30314;48.184;11.510;2024-03-02T10:47:59;94888.38;;;10.21;100.00
7662;BME280;30314;48.184;11.510;2024-03-02T10:50:28;94891.34;;;10.37;100.00
7662;BME280;30314;48.184;11.510;2024-03-02T10:52:55;94883.94;;;10.66;100.00
7662;BME280;30314;48.184;11.510;2024-03-02T10:55:22;94875.84;;;10.71;100.00
7662;BME280;30314;48.184;11.510;2024-03-02T10:57:54;94881.78;;;10.94;100.00
7662;BME280;30314;48.184;11.510;2024-03-02T11:00:25;94875.88;;;11.15;100.00
7662;BME280;30314;48.184;11.510;2024-03-02T11:02:58;94868.41;;;11.17;100.00
7662;BME280;30314;48.184;11.510;2024-03-02T11:05:29;94868.09;;;11.27;100.00
7662;BME280;30314;48.184;11.510;2024-03-02T11:08:02;94866.94;;;11.55;100.00
7662;BME280;30314;48.184;11.510;2024-03-02T11:10:35;94863.25;;;11.47;100.00
7662;BME280;30314;48.184;11.510;2024-03-02T11:13:09;94858.84;;;11.60;100.00
7662;BME280;30314;48.184;11.510;2024-03-02T11:15:35;94843.94;;;11.47;100.00
7662;BME280;30314;48.184;11.510;2024-03-02T11:18:06;94844.91;;;11.33;100.00
7662;BME280;30314;48.184;11.510;2024-03-02T11:20:39;94851.44;;;11.36;100.00
7662;BME280;30314;48.184;11.510;2024-03-02T11:23:08;94843.19;;;11.46;100.00
7662;BME280;30314;48.184;11.510;2024-03-02T11:25:35;94829.44;;;11.62;100.00
7662;BME280;30314;48.184;11.510;2024-03-02T11:28:03;94831.25;;;11.70;100.00
7662;BME280;30314;48.184;11.510;2024-03-02T11:33:03;94822.38;;;11.75;100.00
7662;BME280;30314;48.184;11.510;2024-03-02T11:35:43;94828.38;;;11.93;100.00
7662;BME280;30314;48.184;11.510;2024-03-02T11:38:12;94812.22;;;11.86;100.00
7662;BME280;30314;48.184;11.510;2024-03-02T11:40:40;94814.41;;;11.83;100.00
7662;BME280;30314;48.184;11.510;2024-03-02T11:43:07;94804.19;;;11.73;100.00
7662;BME280;30314;48.184;11.510;2024-03-02T11:45:37;94800.50;;;11.56;100.00
7662;BME280;30314;48.184;11.510;2024-03-02T11:48:13;94797.56;;;11.58;100.00
7662;BME280;30314;48.184;11.510;2024-03-02T11:50:42;94790.72;;;11.57;100.00
7662;BME280;30314;48.184;11.510;2024-03-02T11:53:12;94781.09;;;11.52;100.00
7662;BME280;30314;48.184;11.510;2024-03-02T11:55:40;94788.16;;;11.39;100.00
7662;BME280;30314;48.184;11.510;2024-03-02T11:58:14;94790.19;;;11.34;100.00
7662;BME280;30314;48.184;11.510;2024-03-02T12:00:47;94790.00;;;11.39;100.00
7662;BME280;30314;48.184;11.510;2024-03-02T12:03:14;94786.16;;;11.27;100.00
7662;BME280;30314;48.184;11.510;2024-03-02T12:05:42;94763.47;;;11.26;100.00
7662;BME280;30314;48.184;11.510;2024-03-02T12:08:08;94764.25;;;11.18;100.00
7662;BME280;30314;48.184;11.510;2024-03-02T12:10:36;94777.31;;;11.23;100.00
7662;BME280;30314;48.184;11.510;2024-03-02T12:13:05;94767.84;;;11.22;100.00
7662;BME280;30314;48.184;11.510;2024-03-02T12:15:34;94761.47;;;11.23;100.00
7662;BME280;30314;48.184;11.510;2024-03-02T12:18:04;94762.72;;;11.17;100.00
7662;BME280;30314;48.184;11.510;2024-03-02T12:20:33;94763.00;;;11.24;100.00
7662;BME280;30314;48.184;11.510;2024-03-02T12:23:01;94754.31;;;11.15;100.00
7662;BME280;30314;48.184;11.510;2024-03-02T12:25:30;94753.22;;;11.16;100.00
7662;BME280;30314;48.184;11.510;2024-03-02T12:27:59;94755.50;;;11.35;100.00
7662;BME280;30314;48.184;11.510;2024-03-02T12:30:30;94740.44;;;11.36;100.00
7662;BME280;30314;48.184;11.510;2024-03-02T12:32:58;94734.22;;;11.32;100.00
7662;BME280;30314;48.184;11.510;2024-03-02T12:35:25;94727.72;;;11.29;100.00
7662;BME280;30314;48.184;11.510;2024-03-02T12:37:53;94727.97;;;11.45;100.00
7662;BME280;30314;48.184;11.510;2024-03-02T12:40:20;94717.03;;;11.47;100.00
7662;BME280;30314;48.184;11.510;2024-03-02T12:42:49;94720.28;;;11.52;100.00
7662;BME280;30314;48.184;11.510;2024-03-02T12:45:17;94707.63;;;11.37;100.00
7662;BME280;30314;48.184;11.510;2024-03-02T12:47:51;94713.34;;;11.39;100.00
7662;BME280;30314;48.184;11.510;2024-03-02T12:50:19;94713.34;;;11.39;100.00
7662;BME280;30314;48.184;11.510;2024-03-02T12:52:53;94699.03;;;11.40;100.00
7662;BME280;30314;48.184;11.510;2024-03-02T12:55:21;94708.22;;;11.43;100.00
7662;BME280;30314;48.184;11.510;2024-03-02T12:57:52;94709.31;;;11.41;100.00
7662;BME280;30314;48.184;11.510;2024-03-02T13:00:20;94705.81;;;11.50;100.00
7662;BME280;30314;48.184;11.510;2024-03-02T13:02:49;94697.63;;;11.43;100.00
7662;BME280;30314;48.184;11.510;2024-03-02T13:05:18;94687.22;;;11.37;100.00
7662;BME280;30314;48.184;11.510;2024-03-02T13:07:47;94693.31;;;11.38;100.00